createdAt,value
2018-01-18T00:01:05.575Z,2.50
2018-01-18T00:03:35.079Z,2.50
2018-01-18T00:06:03.089Z,2.50
2018-01-18T00:08:31.105Z,2.50
2018-01-18T00:10:59.863Z,2.50
2018-01-18T00:13:27.860Z,2.40
2018-01-18T00:15:55.859Z,2.50
2018-01-18T00:18:24.627Z,2.50
2018-01-18T00:20:52.640Z,2.40
2018-01-18T00:23:20.607Z,2.50
2018-01-18T00:25:48.599Z,2.50
2018-01-18T00:28:17.364Z,2.60
2018-01-18T00:30:45.359Z,2.50
2018-01-18T00:33:13.371Z,2.60
2018-01-18T00:35:42.130Z,2.60
2018-01-18T00:38:10.132Z,2.60
2018-01-18T00:40:38.129Z,2.60
2018-01-18T00:43:06.879Z,2.70
2018-01-18T00:45:34.896Z,2.60
2018-01-18T00:48:02.879Z,2.60
2018-01-18T00:50:30.880Z,2.70
2018-01-18T00:52:59.635Z,2.80
2018-01-18T00:55:27.642Z,2.70
2018-01-18T00:57:55.643Z,2.80
2018-01-18T01:00:23.623Z,2.80
2018-01-18T01:02:52.400Z,2.80
2018-01-18T01:05:20.388Z,2.80
2018-01-18T01:07:48.396Z,2.80
2018-01-18T01:10:17.159Z,2.90
2018-01-18T01:12:45.148Z,2.80
2018-01-18T01:15:13.171Z,2.80
2018-01-18T01:17:41.936Z,2.90
2018-01-18T01:20:09.932Z,2.80
2018-01-18T01:22:38.712Z,2.90
2018-01-18T01:25:06.687Z,2.80
2018-01-18T01:27:34.695Z,2.90
2018-01-18T01:30:02.692Z,2.90
2018-01-18T01:32:31.455Z,2.90
2018-01-18T01:34:59.463Z,2.90
2018-01-18T01:37:28.232Z,2.90
2018-01-18T01:39:56.224Z,2.90
2018-01-18T01:42:24.210Z,3.00
2018-01-18T01:44:52.217Z,3.00
2018-01-18T01:47:20.191Z,3.00
2018-01-18T01:49:48.183Z,3.00
2018-01-18T01:52:17.014Z,2.90
2018-01-18T01:54:45.820Z,2.90
2018-01-18T01:57:13.876Z,2.90
2018-01-18T01:59:41.897Z,3.00
2018-01-18T02:02:09.944Z,2.90
2018-01-18T02:04:37.964Z,2.90
2018-01-18T02:07:06.009Z,2.80
2018-01-18T02:09:34.806Z,2.80
2018-01-18T02:12:02.849Z,2.80
2018-01-18T02:14:30.896Z,2.80
2018-01-18T02:16:59.688Z,2.80
2018-01-18T02:19:28.508Z,2.80
2018-01-18T02:21:56.536Z,2.70
2018-01-18T02:24:24.585Z,2.70
2018-01-18T02:26:52.619Z,2.80
2018-01-18T02:29:20.674Z,2.80
2018-01-18T02:31:48.704Z,2.80
2018-01-18T02:34:17.513Z,2.70
2018-01-18T02:36:46.304Z,2.70
2018-01-18T02:39:14.360Z,2.70
2018-01-18T02:41:42.392Z,2.70
2018-01-18T02:44:11.432Z,2.60
2018-01-18T02:46:39.468Z,2.60
2018-01-18T02:49:08.464Z,2.60
2018-01-18T02:51:36.494Z,2.50
2018-01-18T02:54:04.537Z,2.60
2018-01-18T02:56:33.335Z,2.60
2018-01-18T02:59:02.147Z,2.50
2018-01-18T03:01:30.940Z,2.50
2018-01-18T03:03:59.756Z,2.50
2018-01-18T03:06:28.549Z,2.60
2018-01-18T03:08:57.368Z,2.60
2018-01-18T03:11:25.400Z,2.50
2018-01-18T03:13:53.454Z,2.60
2018-01-18T03:16:21.481Z,2.60
2018-01-18T03:18:49.542Z,2.60
2018-01-18T03:21:17.564Z,2.60
2018-01-18T03:23:46.380Z,2.70
2018-01-18T03:26:14.408Z,2.70
2018-01-18T03:28:42.477Z,2.80
2018-01-18T03:31:10.537Z,2.80
2018-01-18T03:33:38.573Z,2.80
2018-01-18T03:36:06.620Z,2.80
2018-01-18T03:38:34.655Z,2.90
2018-01-18T03:41:02.692Z,2.90
2018-01-18T03:43:30.713Z,2.90
2018-01-18T03:45:58.766Z,2.90
2018-01-18T03:48:26.791Z,2.90
2018-01-18T03:50:54.837Z,2.90
2018-01-18T03:53:22.882Z,3.00
2018-01-18T03:55:51.677Z,3.00
2018-01-18T03:58:20.484Z,2.90
2018-01-18T04:00:48.529Z,2.90
2018-01-18T04:03:16.568Z,3.00
2018-01-18T04:05:44.649Z,3.00
2018-01-18T04:08:12.698Z,2.90
2018-01-18T04:10:40.728Z,2.90
2018-01-18T04:13:08.779Z,2.80
2018-01-18T04:15:37.584Z,2.80
2018-01-18T04:18:06.372Z,2.70
2018-01-18T04:20:35.193Z,2.60
2018-01-18T04:23:03.240Z,2.60
2018-01-18T04:25:31.264Z,2.50
2018-01-18T04:27:59.320Z,2.50
2018-01-18T04:30:27.346Z,2.40
2018-01-18T04:32:55.388Z,2.30
2018-01-18T04:35:24.204Z,2.10
2018-01-18T04:37:53.001Z,2.00
2018-01-18T04:40:21.808Z,2.00
2018-01-18T04:42:50.625Z,1.90
2018-01-18T04:45:18.673Z,1.90
2018-01-18T04:47:46.699Z,1.90
2018-01-18T04:50:14.740Z,1.90
2018-01-18T04:52:43.565Z,1.90
2018-01-18T04:55:11.611Z,1.80
2018-01-18T04:57:39.645Z,1.80
2018-01-18T05:00:07.689Z,1.80
2018-01-18T05:02:35.756Z,1.70
2018-01-18T05:05:03.808Z,1.70
2018-01-18T05:07:31.840Z,1.70
2018-01-18T05:09:59.892Z,1.70
2018-01-18T05:12:27.944Z,1.70
2018-01-18T05:14:55.991Z,1.70
2018-01-18T05:17:24.029Z,1.70
2018-01-18T05:19:52.066Z,1.80
2018-01-18T05:22:20.868Z,1.80
2018-01-18T05:24:48.911Z,1.70
2018-01-18T05:27:16.941Z,1.80
2018-01-18T05:29:45.760Z,1.90
2018-01-18T05:32:13.793Z,1.80
2018-01-18T05:34:41.840Z,1.90
2018-01-18T05:37:09.884Z,1.90
2018-01-18T05:39:38.689Z,2.00
2018-01-18T05:42:06.740Z,1.90
2018-01-18T05:44:34.764Z,2.00
2018-01-18T05:47:03.580Z,2.10
2018-01-18T05:49:31.604Z,2.00
2018-01-18T05:51:59.684Z,2.10
2018-01-18T05:54:27.700Z,2.10
2018-01-18T05:56:55.756Z,2.20
2018-01-18T05:59:23.792Z,2.20
2018-01-18T06:01:52.592Z,2.20
2018-01-18T06:04:21.408Z,2.30
2018-01-18T06:06:49.433Z,2.20
2018-01-18T06:09:17.484Z,2.30
2018-01-18T06:11:45.520Z,2.30
2018-01-18T06:14:13.573Z,2.30
2018-01-18T06:16:41.681Z,2.30
2018-01-18T06:19:09.744Z,2.30
2018-01-18T06:21:37.801Z,2.40
2018-01-18T06:24:05.829Z,2.40
2018-01-18T06:26:33.887Z,2.40
2018-01-18T06:29:01.928Z,2.40
2018-01-18T06:31:30.753Z,2.40
2018-01-18T06:33:58.784Z,2.30
2018-01-18T06:36:28.358Z,2.30
2018-01-18T06:38:56.413Z,2.20
2018-01-18T06:41:25.213Z,2.20
2018-01-18T06:43:54.029Z,2.20
2018-01-18T06:46:22.061Z,2.10
2018-01-18T06:48:50.121Z,2.10
2018-01-18T06:51:18.149Z,2.10
2018-01-18T06:53:46.209Z,2.00
2018-01-18T06:56:14.248Z,2.10
2018-01-18T06:58:42.325Z,2.00
2018-01-18T07:01:11.113Z,1.90
2018-01-18T07:03:39.941Z,1.90
2018-01-18T07:06:08.001Z,1.80
2018-01-18T07:08:37.540Z,1.80
2018-01-18T07:11:05.577Z,1.80
2018-01-18T07:13:33.667Z,1.90
2018-01-18T07:16:02.601Z,1.90
2018-01-18T07:18:30.660Z,1.90
2018-01-18T07:20:59.664Z,1.90
2018-01-18T07:23:27.718Z,1.90
2018-01-18T07:25:55.748Z,1.90
2018-01-18T07:28:24.560Z,2.00
2018-01-18T07:30:53.356Z,2.00
2018-01-18T07:33:22.177Z,2.10
2018-01-18T07:35:50.211Z,2.00
2018-01-18T07:38:18.253Z,2.10
2018-01-18T07:40:46.341Z,2.20
2018-01-18T07:43:14.398Z,2.20
2018-01-18T07:45:43.192Z,2.20
2018-01-18T07:48:12.004Z,2.20
2018-01-18T07:50:40.044Z,2.10
2018-01-18T07:53:08.097Z,2.30
2018-01-18T07:55:36.132Z,2.30
2018-01-18T07:58:04.193Z,2.30
2018-01-18T08:00:32.224Z,2.40
2018-01-18T08:03:06.617Z,2.30
2018-01-18T08:05:34.663Z,2.30
2018-01-18T08:08:02.712Z,2.40
2018-01-18T08:10:31.521Z,2.40
2018-01-18T08:13:00.316Z,2.40
2018-01-18T08:15:29.161Z,2.50
2018-01-18T08:17:57.201Z,2.40
2018-01-18T08:20:26.015Z,2.50
2018-01-18T08:22:54.808Z,2.60
2018-01-18T08:25:23.620Z,2.60
2018-01-18T08:27:51.668Z,2.50
2018-01-18T08:30:19.705Z,2.60
2018-01-18T08:32:47.748Z,2.70
2018-01-18T08:35:15.808Z,2.70
2018-01-18T08:37:43.860Z,2.80
2018-01-18T08:40:11.888Z,2.80
2018-01-18T08:42:39.928Z,2.80
2018-01-18T08:45:07.980Z,2.80
2018-01-18T08:47:36.785Z,3.00
2018-01-18T08:50:05.604Z,3.00
2018-01-18T08:52:33.652Z,3.00
2018-01-18T08:55:02.449Z,3.10
2018-01-18T08:57:30.519Z,3.00
2018-01-18T08:59:58.550Z,3.10
2018-01-18T09:02:26.602Z,3.20
2018-01-18T09:04:54.621Z,3.20
2018-01-18T09:07:22.677Z,3.30
2018-01-18T09:09:51.484Z,3.40
2018-01-18T09:12:20.299Z,3.50
2018-01-18T09:14:49.106Z,3.50
2018-01-18T09:17:17.129Z,3.40
2018-01-18T09:19:45.188Z,3.50
2018-01-18T09:22:13.221Z,3.50
2018-01-18T09:24:41.260Z,3.60
2018-01-18T09:27:09.284Z,3.60
2018-01-18T09:29:37.328Z,3.60
2018-01-18T09:32:05.348Z,3.70
2018-01-18T09:34:33.401Z,3.70
2018-01-18T09:37:01.441Z,3.80
2018-01-18T09:39:30.246Z,3.90
2018-01-18T09:41:59.045Z,3.90
2018-01-18T09:44:27.856Z,4.00
2018-01-18T09:46:55.888Z,3.90
2018-01-18T09:49:23.942Z,4.00
2018-01-18T09:51:51.981Z,4.00
2018-01-18T09:54:20.032Z,4.10
2018-01-18T09:56:48.072Z,4.10
2018-01-18T09:59:16.100Z,4.20
2018-01-18T10:01:44.195Z,4.10
2018-01-18T10:04:12.201Z,4.20
2018-01-18T10:06:41.021Z,4.30
2018-01-18T10:09:09.816Z,4.50
2018-01-18T10:11:38.639Z,4.60
2018-01-18T10:14:06.668Z,4.60
2018-01-18T10:16:34.708Z,4.70
2018-01-18T10:19:02.876Z,4.80
2018-01-18T10:21:31.665Z,4.90
2018-01-18T10:24:00.481Z,5.00
2018-01-18T10:26:29.268Z,5.10
2018-01-18T10:28:58.076Z,5.10
2018-01-18T10:31:26.869Z,5.10
2018-01-18T10:33:55.680Z,5.10
2018-01-18T10:36:23.746Z,5.10
2018-01-18T10:38:51.776Z,5.20
2018-01-18T10:41:19.828Z,5.30
2018-01-18T10:43:48.647Z,5.50
2018-01-18T10:46:16.697Z,5.40
2018-01-18T10:48:44.722Z,5.50
2018-01-18T10:51:12.772Z,5.60
2018-01-18T10:53:41.576Z,5.80
2018-01-18T10:56:10.389Z,5.80
2018-01-18T10:58:39.230Z,5.90
2018-01-18T11:01:07.245Z,5.80
2018-01-18T11:03:35.296Z,5.90
2018-01-18T11:06:03.319Z,6.00
2018-01-18T11:08:31.378Z,6.10
2018-01-18T11:10:59.424Z,6.10
2018-01-18T11:13:27.468Z,6.10
2018-01-18T11:15:55.501Z,6.20
2018-01-18T11:18:23.560Z,6.30
2018-01-18T11:20:52.372Z,6.50
2018-01-18T11:23:20.415Z,6.40
2018-01-18T11:25:48.467Z,6.70
2018-01-18T11:28:16.504Z,6.80
2018-01-18T11:30:45.337Z,7.00
2018-01-18T11:33:13.367Z,6.90
2018-01-18T11:35:41.421Z,7.10
2018-01-18T11:38:09.436Z,7.30
2018-01-18T11:40:37.494Z,7.40
2018-01-18T11:43:05.521Z,7.60
2018-01-18T11:45:34.353Z,8.10
2018-01-18T11:48:02.377Z,8.00
2018-01-18T11:50:30.429Z,8.20
2018-01-18T11:52:58.475Z,8.10
2018-01-18T11:55:27.264Z,8.20
2018-01-18T11:57:55.308Z,8.20
2018-01-18T12:00:23.336Z,8.20
2018-01-18T12:02:52.152Z,8.00
2018-01-18T12:05:20.944Z,8.00
2018-01-18T12:07:49.758Z,7.90
2018-01-18T12:10:18.556Z,8.00
2018-01-18T12:12:47.380Z,8.00
2018-01-18T12:15:15.455Z,7.90
2018-01-18T12:17:44.242Z,8.20
2018-01-18T12:20:12.314Z,8.10
2018-01-18T12:22:41.108Z,8.50
2018-01-18T12:25:09.161Z,8.40
2018-01-18T12:27:37.197Z,8.70
2018-01-18T12:30:06.009Z,8.90
2018-01-18T12:32:34.042Z,8.80
2018-01-18T12:35:02.081Z,8.90
2018-01-18T12:37:30.117Z,9.00
2018-01-18T12:39:58.180Z,9.30
2018-01-18T12:42:26.213Z,9.10
2018-01-18T12:44:55.027Z,9.00
2018-01-18T12:47:23.074Z,8.90
2018-01-18T12:49:51.129Z,9.00
2018-01-18T12:52:19.160Z,9.10
2018-01-18T12:54:47.225Z,9.10
2018-01-18T12:57:15.257Z,9.20
2018-01-18T12:59:43.321Z,9.20
2018-01-18T13:02:12.112Z,9.20
2018-01-18T13:04:40.925Z,9.20
2018-01-18T13:07:09.724Z,9.30
2018-01-18T13:09:38.549Z,9.40
2018-01-18T13:12:06.585Z,9.40
2018-01-18T13:14:34.630Z,9.70
2018-01-18T13:17:02.674Z,9.80
2018-01-18T13:19:31.476Z,9.90
2018-01-18T13:22:00.284Z,10.10
2018-01-18T13:24:29.099Z,10.10
2018-01-18T13:26:57.129Z,10.10
2018-01-18T13:29:26.692Z,10.00
2018-01-18T13:31:54.730Z,10.00
2018-01-18T13:34:22.776Z,10.20
2018-01-18T13:36:50.829Z,10.40
2018-01-18T13:39:19.640Z,10.40
2018-01-18T13:41:47.676Z,10.30
2018-01-18T13:44:15.828Z,10.20
2018-01-18T13:46:43.839Z,9.80
2018-01-18T13:49:11.889Z,9.60
2018-01-18T13:51:39.936Z,9.40
2018-01-18T13:54:08.062Z,9.20
2018-01-18T13:56:36.104Z,9.10
2018-01-18T13:59:04.157Z,8.80
2018-01-18T14:01:32.176Z,8.40
2018-01-18T14:04:00.996Z,8.20
2018-01-18T14:06:29.813Z,8.20
2018-01-18T14:08:57.860Z,8.10
2018-01-18T14:11:26.680Z,8.20
2018-01-18T14:13:55.469Z,8.30
2018-01-18T14:16:23.528Z,8.30
2018-01-18T14:18:51.580Z,8.30
2018-01-18T14:21:19.633Z,8.30
2018-01-18T14:23:48.431Z,8.20
2018-01-18T14:26:17.236Z,8.20
2018-01-18T14:28:46.040Z,8.20
2018-01-18T14:31:14.849Z,8.20
2018-01-18T14:33:42.881Z,8.10
2018-01-18T14:36:10.932Z,8.20
2018-01-18T14:38:38.956Z,8.30
2018-01-18T14:41:07.013Z,8.40
2018-01-18T14:43:35.049Z,8.50
2018-01-18T14:46:03.873Z,8.50
2018-01-18T14:48:32.275Z,8.40
2018-01-18T14:51:00.329Z,8.30
2018-01-18T14:53:29.129Z,8.20
2018-01-18T14:55:57.940Z,8.30
2018-01-18T14:58:25.973Z,8.20
2018-01-18T15:00:54.021Z,8.40
2018-01-18T15:03:22.050Z,8.40
2018-01-18T15:05:50.102Z,8.40
2018-01-18T15:08:18.125Z,8.30
2018-01-18T15:10:46.180Z,8.20
2018-01-18T15:13:14.200Z,8.20
2018-01-18T15:15:42.267Z,8.20
2018-01-18T15:18:10.301Z,8.20
2018-01-18T15:20:38.345Z,8.10
2018-01-18T15:23:06.401Z,8.10
2018-01-18T15:25:34.435Z,8.00
2018-01-18T15:28:03.257Z,8.00
2018-01-18T15:30:31.273Z,7.90
2018-01-18T15:32:59.316Z,8.00
2018-01-18T15:35:27.365Z,8.00
2018-01-18T15:37:55.416Z,7.90
2018-01-18T15:40:23.452Z,8.00
2018-01-18T15:42:52.272Z,7.80
2018-01-18T15:45:20.346Z,7.80
2018-01-18T15:47:48.409Z,7.90
2018-01-18T15:50:16.456Z,7.90
2018-01-18T15:52:44.516Z,7.90
2018-01-18T15:55:12.604Z,8.00
2018-01-18T15:57:40.630Z,8.00
2018-01-18T16:00:08.681Z,7.90
2018-01-18T16:02:36.717Z,7.90
2018-01-18T16:05:05.532Z,7.90
2018-01-18T16:07:34.352Z,7.80
2018-01-18T16:10:02.409Z,7.80
2018-01-18T16:12:30.429Z,7.80
2018-01-18T16:14:58.469Z,7.80
2018-01-18T16:17:26.565Z,7.70
2018-01-18T16:19:54.605Z,7.70
2018-01-18T16:22:22.645Z,7.70
2018-01-18T16:24:51.461Z,7.70
2018-01-18T16:27:19.504Z,7.70
2018-01-18T16:29:47.556Z,7.70
2018-01-18T16:32:15.630Z,7.60
2018-01-18T16:34:43.648Z,7.70
2018-01-18T16:37:11.722Z,7.60
2018-01-18T16:39:39.756Z,7.60
2018-01-18T16:42:07.801Z,7.60
2018-01-18T16:44:35.829Z,7.50
2018-01-18T16:47:03.896Z,7.50
2018-01-18T16:49:32.692Z,7.50
2018-01-18T16:52:01.508Z,7.50
2018-01-18T16:54:29.552Z,7.50
2018-01-18T16:56:57.605Z,7.50
2018-01-18T16:59:25.657Z,7.50
2018-01-18T17:01:53.693Z,7.30
2018-01-18T17:04:21.776Z,7.40
2018-01-18T17:06:49.796Z,7.30
2018-01-18T17:09:18.612Z,7.20
2018-01-18T17:11:46.697Z,7.20
2018-01-18T17:14:15.521Z,7.20
2018-01-18T17:16:44.328Z,7.10
2018-01-18T17:19:12.397Z,7.10
2018-01-18T17:21:40.492Z,7.20
2018-01-18T17:24:08.524Z,7.10
2018-01-18T17:26:36.600Z,7.00
2018-01-18T17:29:04.630Z,6.90
2018-01-18T17:31:32.687Z,6.90
2018-01-18T17:34:00.721Z,6.80
2018-01-18T17:36:28.774Z,6.80
2018-01-18T17:38:56.801Z,6.80
2018-01-18T17:41:24.832Z,6.70
2018-01-18T17:43:53.656Z,6.70
2018-01-18T17:46:21.705Z,6.60
2018-01-18T17:48:50.504Z,6.60
2018-01-18T17:51:19.373Z,6.60
2018-01-18T17:53:47.416Z,6.50
2018-01-18T17:56:15.493Z,6.60
2018-01-18T17:58:44.312Z,6.60
2018-01-18T18:01:12.352Z,6.60
2018-01-18T18:03:40.402Z,6.60
2018-01-18T18:06:08.461Z,6.70
2018-01-18T18:08:36.508Z,6.80
2018-01-18T18:11:05.313Z,6.70
2018-01-18T18:13:33.365Z,6.60
2018-01-18T18:16:01.403Z,6.70
2018-01-18T18:18:29.448Z,6.60
2018-01-18T18:20:57.476Z,6.60
2018-01-18T18:23:25.548Z,6.60
2018-01-18T18:25:54.347Z,6.40
2018-01-18T18:28:23.160Z,6.50
2018-01-18T18:30:51.193Z,6.40
2018-01-18T18:33:19.248Z,6.50
2018-01-18T18:35:47.338Z,6.50
2018-01-18T18:38:15.375Z,6.50
2018-01-18T18:40:43.430Z,6.40
2018-01-18T18:43:11.466Z,6.40
2018-01-18T18:45:39.509Z,6.30
2018-01-18T18:48:07.548Z,6.20
2018-01-18T18:50:35.589Z,6.20
2018-01-18T18:53:04.385Z,6.10
2018-01-18T18:55:32.446Z,6.00
2018-01-18T18:58:00.485Z,6.10
2018-01-18T19:00:28.557Z,6.00
2018-01-18T19:03:01.940Z,6.00
2018-01-18T19:05:32.005Z,5.70
2018-01-18T19:08:00.050Z,5.70
2018-01-18T19:10:28.078Z,5.60
2018-01-18T19:12:56.150Z,5.60
2018-01-18T19:15:24.185Z,5.50
2018-01-18T19:17:52.242Z,5.40
2018-01-18T19:20:20.272Z,5.50
2018-01-18T19:22:48.315Z,5.50
2018-01-18T19:25:16.333Z,5.50
2018-01-18T19:27:44.377Z,5.40
2018-01-18T19:30:12.439Z,5.50
2018-01-18T19:32:40.477Z,5.60
2018-01-18T19:35:08.548Z,5.50
2018-01-18T19:37:36.619Z,5.50
2018-01-18T19:40:04.700Z,5.50
2018-01-18T19:42:32.728Z,5.60
2018-01-18T19:45:01.729Z,5.50
2018-01-18T19:47:31.278Z,5.50
2018-01-18T19:50:00.103Z,5.40
2018-01-18T19:52:28.166Z,5.40
2018-01-18T19:54:56.968Z,5.60
2018-01-18T19:57:25.027Z,5.50
2018-01-18T19:59:53.075Z,5.60
2018-01-18T20:02:21.125Z,5.60
2018-01-18T20:04:49.192Z,5.60
2018-01-18T20:07:18.076Z,5.70
2018-01-18T20:09:46.128Z,5.60
2018-01-18T20:12:14.949Z,5.60
2018-01-18T20:14:43.102Z,5.60
2018-01-18T20:17:11.177Z,5.50
2018-01-18T20:19:39.251Z,5.50
2018-01-18T20:22:07.317Z,5.50
2018-01-18T20:24:35.357Z,5.50
2018-01-18T20:27:03.391Z,5.50
2018-01-18T20:29:32.221Z,5.40
2018-01-18T20:32:00.266Z,5.30
2018-01-18T20:34:29.144Z,5.40
2018-01-18T20:36:57.181Z,5.40
2018-01-18T20:39:25.264Z,5.40
2018-01-18T20:41:53.417Z,5.40
2018-01-18T20:44:22.268Z,5.20
2018-01-18T20:46:50.351Z,5.20
2018-01-18T20:49:18.384Z,5.30
2018-01-18T20:51:46.511Z,5.20
2018-01-18T20:54:14.574Z,5.20
2018-01-18T20:56:44.141Z,5.20
2018-01-18T20:59:12.231Z,5.20
2018-01-18T21:01:41.104Z,4.90
2018-01-18T21:04:09.161Z,4.90
2018-01-18T21:06:37.973Z,4.90
2018-01-18T21:09:06.009Z,4.90
2018-01-18T21:11:34.053Z,4.90
2018-01-18T21:14:02.103Z,4.90
2018-01-18T21:16:30.132Z,4.90
2018-01-18T21:18:58.205Z,4.80
2018-01-18T21:21:26.237Z,4.70
2018-01-18T21:23:54.280Z,4.70
2018-01-18T21:26:22.312Z,4.70
2018-01-18T21:28:50.397Z,4.70
2018-01-18T21:31:18.430Z,4.70
2018-01-18T21:33:46.496Z,4.60
2018-01-18T21:36:14.553Z,4.50
2018-01-18T21:38:42.591Z,4.50
2018-01-18T21:41:10.680Z,4.30
2018-01-18T21:43:38.707Z,4.30
2018-01-18T21:46:07.540Z,4.20
2018-01-18T21:48:35.581Z,4.20
2018-01-18T21:51:03.710Z,4.30
2018-01-18T21:53:31.936Z,4.20
2018-01-18T21:55:59.981Z,4.30
2018-01-18T21:58:28.968Z,4.20
2018-01-18T22:00:57.793Z,4.20
2018-01-18T22:03:25.840Z,4.10
2018-01-18T22:05:53.887Z,4.20
2018-01-18T22:08:21.928Z,4.20
2018-01-18T22:10:50.769Z,4.10
2018-01-18T22:13:18.830Z,4.00
2018-01-18T22:15:46.890Z,4.00
2018-01-18T22:18:15.701Z,4.00
2018-01-18T22:20:43.738Z,4.00
2018-01-18T22:23:12.601Z,3.80
2018-01-18T22:25:40.643Z,3.70
2018-01-18T22:28:08.688Z,3.50
2018-01-18T22:30:36.728Z,3.50
2018-01-18T22:33:05.565Z,3.40
2018-01-18T22:35:33.588Z,3.30
2018-01-18T22:38:01.641Z,3.40
2018-01-18T22:40:29.687Z,3.30
2018-01-18T22:42:58.493Z,3.20
2018-01-18T22:45:26.580Z,3.10
2018-01-18T22:47:54.604Z,3.20
2018-01-18T22:50:22.649Z,3.20
2018-01-18T22:52:51.688Z,3.10
2018-01-18T22:55:19.740Z,3.00
2018-01-18T22:57:47.789Z,3.10
2018-01-18T23:00:19.672Z,3.20
2018-01-18T23:02:48.480Z,3.10
2018-01-18T23:05:17.284Z,3.20
2018-01-18T23:07:46.092Z,3.20
2018-01-18T23:10:14.916Z,3.20
2018-01-18T23:12:42.970Z,3.20
2018-01-18T23:15:11.770Z,3.30
2018-01-18T23:17:40.594Z,3.30
2018-01-18T23:20:08.629Z,3.30
2018-01-18T23:22:36.688Z,3.30
2018-01-18T23:25:04.720Z,3.30
2018-01-18T23:27:33.520Z,3.30
2018-01-18T23:30:02.311Z,3.40
2018-01-18T23:32:30.357Z,3.30
2018-01-18T23:34:58.391Z,3.50
2018-01-18T23:37:27.209Z,3.60
2018-01-18T23:39:55.245Z,3.60
2018-01-18T23:42:23.303Z,3.70
2018-01-18T23:44:51.348Z,3.70
2018-01-18T23:47:20.149Z,3.70
2018-01-18T23:49:48.965Z,3.70
2018-01-18T23:52:17.752Z,3.60
2018-01-18T23:54:46.569Z,3.70
2018-01-18T23:57:14.600Z,3.60
2018-01-18T23:59:42.646Z,3.70
